createdAt,value
2019-02-08T00:00:20.882Z,4.98
2019-02-08T00:02:48.985Z,5.49
2019-02-08T00:05:16.991Z,5.02
2019-02-08T00:07:45.002Z,5.18
2019-02-08T00:10:13.058Z,5.41
2019-02-08T00:12:41.093Z,5.25
2019-02-08T00:15:09.161Z,4.89
2019-02-08T00:17:37.482Z,5.24
2019-02-08T00:20:06.134Z,4.91
2019-02-08T00:22:34.182Z,5.02
2019-02-08T00:25:02.120Z,5.13
2019-02-08T00:27:30.164Z,4.90
2019-02-08T00:29:58.149Z,5.02
2019-02-08T00:32:27.707Z,4.74
2019-02-08T00:34:55.884Z,4.99
2019-02-08T00:37:23.918Z,4.84
2019-02-08T00:39:51.939Z,4.80
2019-02-08T00:42:20.063Z,5.01
2019-02-08T00:44:48.058Z,5.14
2019-02-08T00:47:16.090Z,5.05
2019-02-08T00:49:44.424Z,4.86
2019-02-08T00:52:12.716Z,5.11
2019-02-08T00:54:40.748Z,5.10
2019-02-08T00:57:08.757Z,4.97
2019-02-08T00:59:36.743Z,5.05
2019-02-08T01:02:04.831Z,5.11
2019-02-08T01:04:32.764Z,5.00
2019-02-08T01:07:00.797Z,5.06
2019-02-08T01:09:29.052Z,5.09
2019-02-08T01:11:57.081Z,5.11
2019-02-08T01:14:25.109Z,5.11
2019-02-08T01:16:53.125Z,5.06
2019-02-08T01:19:21.153Z,5.11
2019-02-08T01:21:49.177Z,5.01
2019-02-08T01:24:17.162Z,5.06
2019-02-08T01:26:45.169Z,5.02
2019-02-08T01:29:13.208Z,4.95
2019-02-08T01:31:41.183Z,4.98
2019-02-08T01:34:09.257Z,4.94
2019-02-08T01:36:37.250Z,4.94
2019-02-08T01:39:07.786Z,4.91
2019-02-08T01:41:35.835Z,4.92
2019-02-08T01:44:03.828Z,4.91
2019-02-08T01:46:31.834Z,4.89
2019-02-08T01:48:59.828Z,4.89
2019-02-08T01:51:27.880Z,4.94
2019-02-08T01:53:55.969Z,4.85
2019-02-08T01:56:23.983Z,4.74
2019-02-08T01:58:52.005Z,4.78
2019-02-08T02:01:20.003Z,4.78
2019-02-08T02:03:48.071Z,4.78
2019-02-08T02:06:16.067Z,4.76
2019-02-08T02:08:44.072Z,4.74
2019-02-08T02:11:12.113Z,4.78
2019-02-08T02:13:40.107Z,4.81
2019-02-08T02:16:08.107Z,4.82
2019-02-08T02:18:36.125Z,4.86
2019-02-08T02:21:04.169Z,4.79
2019-02-08T02:23:32.252Z,4.79
2019-02-08T02:26:00.263Z,4.79
2019-02-08T02:28:28.256Z,4.78
2019-02-08T02:30:56.270Z,4.72
2019-02-08T02:33:24.269Z,4.70
2019-02-08T02:35:52.228Z,4.63
2019-02-08T02:38:20.157Z,4.64
2019-02-08T02:40:48.154Z,4.62
2019-02-08T02:43:16.118Z,4.60
2019-02-08T02:45:44.115Z,4.54
2019-02-08T02:48:13.912Z,4.59
2019-02-08T02:50:41.984Z,4.56
2019-02-08T02:53:10.018Z,4.55
2019-02-08T02:55:38.071Z,4.46
2019-02-08T02:58:06.403Z,4.45
2019-02-08T03:00:36.644Z,3.04
2019-02-08T03:03:04.765Z,4.49
2019-02-08T03:05:32.811Z,4.48
2019-02-08T03:08:00.788Z,4.48
2019-02-08T03:13:22.917Z,4.52
2019-02-08T03:15:50.929Z,4.56
2019-02-08T03:18:18.906Z,4.44
2019-02-08T03:20:46.900Z,4.48
2019-02-08T03:23:14.923Z,4.44
2019-02-08T03:25:43.041Z,4.44
2019-02-08T03:28:11.032Z,4.43
2019-02-08T03:30:58.006Z,4.39
2019-02-08T03:33:26.150Z,4.37
2019-02-08T03:35:54.226Z,4.37
2019-02-08T03:38:22.251Z,4.30
2019-02-08T03:40:50.260Z,4.23
2019-02-08T03:43:18.260Z,4.27
2019-02-08T03:45:47.401Z,4.28
2019-02-08T03:48:15.380Z,4.27
2019-02-08T03:50:43.400Z,4.32
2019-02-08T03:53:11.893Z,4.30
2019-02-08T03:55:39.988Z,4.35
2019-02-08T03:58:08.655Z,4.33
2019-02-08T04:00:58.708Z,4.23
2019-02-08T04:03:26.699Z,4.30
2019-02-08T04:05:54.698Z,4.30
2019-02-08T04:08:22.663Z,4.32
2019-02-08T04:10:50.685Z,4.27
2019-02-08T04:13:18.683Z,4.25
2019-02-08T04:15:46.828Z,4.27
2019-02-08T04:18:14.851Z,4.30
2019-02-08T04:20:42.862Z,4.18
2019-02-08T04:23:10.879Z,4.27
2019-02-08T04:25:38.844Z,4.27
2019-02-08T04:28:06.937Z,4.29
2019-02-08T04:30:34.931Z,4.22
2019-02-08T04:33:02.911Z,4.28
2019-02-08T04:35:30.995Z,4.26
2019-02-08T04:37:59.018Z,4.23
2019-02-08T04:40:27.038Z,4.20
2019-02-08T04:42:55.087Z,4.26
2019-02-08T04:45:23.053Z,4.28
2019-02-08T04:47:51.114Z,4.33
2019-02-08T04:50:20.836Z,4.32
2019-02-08T04:52:48.853Z,4.30
2019-02-08T04:55:16.929Z,4.36
2019-02-08T04:57:44.904Z,4.37
2019-02-08T05:00:24.902Z,4.34
2019-02-08T05:02:52.878Z,4.25
2019-02-08T05:05:20.850Z,4.21
2019-02-08T05:07:48.916Z,4.20
2019-02-08T05:10:19.046Z,4.15
2019-02-08T05:12:47.057Z,4.15
2019-02-08T05:15:15.095Z,4.14
2019-02-08T05:17:43.149Z,4.17
2019-02-08T05:20:12.605Z,4.16
2019-02-08T05:22:40.625Z,4.15
2019-02-08T05:25:08.785Z,4.16
2019-02-08T05:27:40.398Z,4.11
2019-02-08T05:30:12.235Z,4.03
2019-02-08T05:32:40.314Z,4.08
2019-02-08T05:35:08.812Z,4.21
2019-02-08T05:37:36.905Z,4.14
2019-02-08T05:40:06.228Z,4.07
2019-02-08T05:42:34.395Z,4.09
2019-02-08T05:45:02.869Z,3.95
2019-02-08T05:47:31.116Z,4.09
2019-02-08T05:49:59.094Z,3.95
2019-02-08T05:52:27.100Z,3.97
2019-02-08T05:54:55.148Z,3.96
2019-02-08T05:57:24.530Z,4.00
2019-02-08T05:59:52.452Z,3.97
2019-02-08T06:02:20.508Z,3.93
2019-02-08T06:04:48.502Z,3.98
2019-02-08T06:07:16.512Z,3.88
2019-02-08T06:09:44.588Z,3.86
2019-02-08T06:12:12.640Z,3.91
2019-02-08T06:14:40.682Z,3.87
2019-02-08T06:17:08.723Z,3.83
2019-02-08T06:19:36.738Z,3.93
2019-02-08T06:22:04.742Z,3.91
2019-02-08T06:24:32.782Z,3.88
2019-02-08T06:27:00.807Z,3.83
2019-02-08T06:29:28.821Z,3.84
2019-02-08T06:31:56.823Z,3.86
2019-02-08T06:34:24.861Z,3.88
2019-02-08T06:36:52.889Z,3.89
2019-02-08T06:39:20.891Z,3.90
2019-02-08T06:41:48.891Z,3.88
2019-02-08T06:44:16.897Z,3.90
2019-02-08T06:46:44.930Z,3.86
2019-02-08T06:49:12.938Z,3.92
2019-02-08T06:51:40.943Z,3.99
2019-02-08T06:54:09.043Z,3.94
2019-02-08T06:57:08.279Z,3.94
2019-02-08T06:59:45.422Z,3.93
2019-02-08T07:02:32.430Z,3.88
2019-02-08T07:05:22.403Z,3.90
2019-02-08T07:08:27.744Z,3.87
2019-02-08T07:11:10.230Z,3.88
2019-02-08T07:13:57.232Z,3.90
2019-02-08T07:16:42.254Z,3.91
2019-02-08T07:19:27.708Z,3.95
2019-02-08T07:22:14.648Z,3.90
2019-02-08T07:24:51.384Z,3.92
2019-02-08T07:27:37.263Z,3.98
2019-02-08T07:30:16.006Z,4.07
2019-02-08T07:33:17.851Z,4.08
2019-02-08T07:35:54.131Z,4.15
2019-02-08T07:38:53.130Z,4.03
2019-02-08T07:41:40.861Z,4.20
2019-02-08T07:44:19.051Z,4.12
2019-02-08T07:47:06.116Z,4.11
2019-02-08T07:49:41.616Z,4.06
2019-02-08T07:52:34.772Z,4.18
2019-02-08T07:55:14.106Z,4.20
2019-02-08T07:57:56.440Z,4.19
2019-02-08T08:01:01.997Z,4.27
2019-02-08T08:03:42.141Z,4.33
2019-02-08T08:06:37.990Z,4.39
2019-02-08T08:09:34.623Z,4.38
2019-02-08T08:12:20.260Z,4.48
2019-02-08T08:15:01.673Z,4.35
2019-02-08T08:17:48.634Z,4.48
2019-02-08T08:23:32.948Z,4.47
2019-02-08T08:26:30.669Z,4.50
2019-02-08T08:29:04.718Z,4.38
2019-02-08T08:31:53.216Z,4.44
2019-02-08T08:34:58.004Z,4.48
2019-02-08T08:38:13.590Z,4.49
2019-02-08T08:41:12.951Z,4.47
2019-02-08T08:44:25.465Z,4.54
2019-02-08T08:47:32.854Z,4.59
2019-02-08T08:50:30.402Z,4.65
2019-02-08T08:53:41.301Z,4.65
2019-02-08T08:56:36.633Z,4.66
2019-02-08T08:59:34.211Z,4.72
2019-02-08T09:02:42.350Z,4.79
2019-02-08T09:05:41.151Z,4.88
2019-02-08T09:08:58.061Z,4.90
2019-02-08T09:11:52.798Z,4.94
2019-02-08T09:14:55.440Z,5.05
2019-02-08T09:18:02.534Z,5.16
2019-02-08T09:20:55.191Z,5.08
2019-02-08T09:24:22.443Z,5.17
2019-02-08T09:27:30.652Z,5.16
2019-02-08T09:30:41.067Z,5.19
2019-02-08T09:33:33.870Z,5.36
2019-02-08T09:36:38.676Z,5.43
2019-02-08T09:39:32.062Z,5.49
2019-02-08T09:42:33.984Z,5.59
2019-02-08T09:45:40.783Z,5.68
2019-02-08T09:48:58.297Z,5.60
2019-02-08T09:52:07.088Z,5.62
2019-02-08T09:55:31.197Z,5.70
2019-02-08T09:58:32.515Z,5.74
2019-02-08T10:01:36.109Z,5.76
2019-02-08T10:07:32.853Z,5.84
2019-02-08T10:10:34.765Z,5.85
2019-02-08T10:13:24.013Z,5.83
2019-02-08T10:16:34.203Z,5.96
2019-02-08T10:19:40.567Z,6.11
2019-02-08T10:22:52.863Z,5.96
2019-02-08T10:26:07.672Z,6.12
2019-02-08T10:29:11.528Z,6.10
2019-02-08T10:32:15.149Z,6.22
2019-02-08T10:35:29.980Z,6.20
2019-02-08T10:38:33.556Z,6.21
2019-02-08T10:41:38.462Z,6.09
2019-02-08T10:44:31.130Z,6.18
2019-02-08T10:47:35.684Z,6.31
2019-02-08T10:50:40.849Z,6.29
2019-02-08T10:53:22.901Z,6.39
2019-02-08T10:56:33.240Z,6.71
2019-02-08T10:59:39.505Z,6.77
2019-02-08T11:02:59.481Z,6.85
2019-02-08T11:06:10.547Z,6.94
2019-02-08T11:09:27.647Z,6.99
2019-02-08T11:12:26.203Z,7.03
2019-02-08T11:15:31.367Z,7.04
2019-02-08T11:18:38.296Z,7.00
2019-02-08T11:21:06.360Z,7.01
2019-02-08T11:23:34.407Z,7.07
2019-02-08T11:26:02.500Z,7.22
2019-02-08T11:28:30.510Z,7.16
2019-02-08T11:30:58.614Z,7.05
2019-02-08T11:33:26.662Z,7.15
2019-02-08T11:35:54.755Z,7.14
2019-02-08T11:38:22.748Z,7.30
2019-02-08T11:40:51.832Z,7.25
2019-02-08T11:43:19.912Z,7.16
2019-02-08T11:45:47.964Z,7.13
2019-02-08T11:48:16.070Z,7.24
2019-02-08T11:50:44.179Z,7.34
2019-02-08T11:53:12.160Z,7.23
2019-02-08T11:55:40.202Z,7.29
2019-02-08T11:58:08.205Z,7.27
2019-02-08T12:00:43.230Z,7.08
2019-02-08T12:03:11.310Z,7.09
2019-02-08T12:05:39.301Z,7.21
2019-02-08T12:08:07.392Z,7.26
2019-02-08T12:10:35.437Z,7.36
2019-02-08T12:13:03.536Z,7.39
2019-02-08T12:15:31.686Z,7.20
2019-02-08T12:17:59.869Z,6.95
2019-02-08T12:20:27.929Z,7.11
2019-02-08T12:22:56.021Z,7.08
2019-02-08T12:25:24.023Z,7.00
2019-02-08T12:27:52.101Z,7.06
2019-02-08T12:30:23.795Z,7.11
2019-02-08T12:32:51.793Z,6.96
2019-02-08T12:35:19.835Z,7.04
2019-02-08T12:37:47.950Z,6.99
2019-02-08T12:40:15.985Z,7.12
2019-02-08T12:42:44.057Z,7.06
2019-02-08T12:45:12.199Z,7.02
2019-02-08T12:47:40.277Z,7.05
2019-02-08T12:50:08.585Z,7.08
2019-02-08T12:52:36.637Z,7.04
2019-02-08T12:55:05.298Z,7.16
2019-02-08T12:57:33.336Z,7.09
2019-02-08T13:00:02.252Z,7.09
2019-02-08T13:02:30.328Z,7.07
2019-02-08T13:04:58.682Z,7.07
2019-02-08T13:07:26.734Z,7.00
2019-02-08T13:09:55.204Z,6.91
2019-02-08T13:12:25.448Z,6.94
2019-02-08T13:14:53.221Z,6.82
2019-02-08T13:17:21.815Z,7.01
2019-02-08T13:19:50.201Z,7.02
2019-02-08T13:22:18.709Z,7.01
2019-02-08T13:24:46.973Z,6.82
2019-02-08T13:27:15.027Z,6.88
2019-02-08T13:29:43.191Z,6.87
2019-02-08T13:32:11.325Z,6.81
2019-02-08T13:34:39.707Z,6.87
2019-02-08T13:37:07.856Z,6.91
2019-02-08T13:39:36.509Z,6.97
2019-02-08T13:42:06.093Z,6.87
2019-02-08T13:44:34.573Z,6.81
2019-02-08T13:47:02.829Z,6.97
2019-02-08T13:49:31.227Z,7.14
2019-02-08T13:51:59.881Z,6.98
2019-02-08T13:54:28.757Z,6.92
2019-02-08T13:57:00.706Z,6.91
2019-02-08T13:59:45.878Z,6.76
2019-02-08T14:02:14.344Z,6.76
2019-02-08T14:04:42.781Z,6.98
2019-02-08T14:07:11.236Z,7.00
2019-02-08T14:09:39.719Z,7.00
2019-02-08T14:12:08.086Z,7.05
2019-02-08T14:14:36.407Z,6.97
2019-02-08T14:17:05.074Z,6.97
2019-02-08T14:19:33.135Z,6.99
2019-02-08T14:22:01.256Z,7.02
2019-02-08T14:24:29.380Z,7.03
2019-02-08T14:26:57.518Z,7.10
2019-02-08T14:29:25.635Z,7.05
2019-02-08T14:31:53.804Z,7.09
2019-02-08T14:34:21.878Z,7.06
2019-02-08T14:36:49.969Z,7.02
2019-02-08T14:39:18.174Z,7.07
2019-02-08T14:41:46.209Z,7.14
2019-02-08T14:44:14.361Z,7.16
2019-02-08T14:46:42.610Z,7.12
2019-02-08T14:49:10.849Z,6.97
2019-02-08T14:51:38.967Z,7.22
2019-02-08T14:54:07.810Z,7.08
2019-02-08T14:56:35.900Z,7.10
2019-02-08T14:59:03.975Z,7.13
2019-02-08T15:01:32.061Z,7.19
2019-02-08T15:04:00.325Z,6.98
2019-02-08T15:06:28.620Z,6.96
2019-02-08T15:08:56.692Z,6.77
2019-02-08T15:11:24.765Z,6.84
2019-02-08T15:13:52.842Z,6.99
2019-02-08T15:16:20.908Z,7.05
2019-02-08T15:18:49.039Z,6.78
2019-02-08T15:21:17.164Z,6.65
2019-02-08T15:23:45.229Z,6.78
2019-02-08T15:26:13.335Z,6.80
2019-02-08T15:28:41.414Z,6.67
2019-02-08T15:31:09.454Z,6.75
2019-02-08T15:33:37.517Z,6.83
2019-02-08T15:36:05.583Z,6.71
2019-02-08T15:38:33.690Z,6.77
2019-02-08T15:41:01.713Z,6.69
2019-02-08T15:43:29.764Z,6.71
2019-02-08T15:46:03.245Z,6.60
2019-02-08T15:48:31.402Z,6.65
2019-02-08T15:51:01.073Z,6.64
2019-02-08T15:53:29.263Z,6.63
2019-02-08T15:56:09.497Z,6.59
2019-02-08T15:58:37.715Z,6.60
2019-02-08T16:01:08.580Z,6.60
2019-02-08T16:03:37.097Z,6.55
2019-02-08T16:06:05.415Z,6.55
2019-02-08T16:08:33.585Z,6.57
2019-02-08T16:11:01.842Z,6.53
2019-02-08T16:13:29.994Z,6.53
2019-02-08T16:15:58.111Z,6.53
2019-02-08T16:18:26.496Z,6.50
2019-02-08T16:20:54.786Z,6.50
2019-02-08T16:23:23.222Z,6.48
2019-02-08T16:25:51.434Z,6.52
2019-02-08T16:28:19.544Z,6.48
2019-02-08T16:30:47.613Z,6.45
2019-02-08T16:33:15.658Z,6.44
2019-02-08T16:35:44.748Z,6.49
2019-02-08T16:38:12.855Z,6.47
2019-02-08T16:40:41.066Z,6.49
2019-02-08T16:43:09.269Z,6.41
2019-02-08T16:45:37.410Z,6.45
2019-02-08T16:48:07.585Z,6.50
2019-02-08T16:50:35.718Z,6.44
2019-02-08T16:53:03.775Z,6.46
2019-02-08T16:55:31.810Z,6.43
2019-02-08T16:57:59.869Z,6.41
2019-02-08T17:00:47.191Z,6.41
2019-02-08T17:03:15.488Z,6.49
2019-02-08T17:05:44.138Z,6.44
2019-02-08T17:08:12.179Z,6.40
2019-02-08T17:10:40.299Z,6.40
2019-02-08T17:13:08.575Z,6.47
2019-02-08T17:15:36.632Z,6.35
2019-02-08T17:18:04.680Z,6.37
2019-02-08T17:20:38.234Z,6.43
2019-02-08T17:23:06.377Z,6.43
2019-02-08T17:25:34.661Z,6.41
2019-02-08T17:28:03.000Z,6.34
2019-02-08T17:30:31.115Z,6.39
2019-02-08T17:32:59.372Z,6.28
2019-02-08T17:35:27.529Z,6.32
2019-02-08T17:37:55.578Z,6.35
2019-02-08T17:40:25.990Z,6.30
2019-02-08T17:42:54.074Z,6.33
2019-02-08T17:45:22.314Z,6.30
2019-02-08T17:47:53.118Z,6.22
2019-02-08T17:50:23.415Z,6.20
2019-02-08T17:52:51.767Z,6.26
2019-02-08T17:55:21.519Z,6.24
2019-02-08T17:57:50.419Z,6.22
2019-02-08T18:00:22.425Z,6.09
2019-02-08T18:02:50.533Z,6.12
2019-02-08T18:05:19.305Z,6.13
2019-02-08T18:07:47.923Z,6.13
2019-02-08T18:10:19.334Z,6.27
2019-02-08T18:12:48.310Z,6.16
2019-02-08T18:15:19.091Z,6.13
2019-02-08T18:17:47.514Z,6.22
2019-02-08T18:20:22.571Z,6.16
2019-02-08T18:22:50.593Z,6.28
2019-02-08T18:25:18.834Z,6.31
2019-02-08T18:27:47.175Z,6.34
2019-02-08T18:30:16.473Z,6.26
2019-02-08T18:32:44.505Z,6.14
2019-02-08T18:35:12.902Z,6.12
2019-02-08T18:37:41.106Z,6.15
2019-02-08T18:40:11.124Z,6.28
2019-02-08T18:42:39.424Z,6.23
2019-02-08T18:45:08.730Z,6.18
2019-02-08T18:47:37.101Z,6.21
2019-02-08T18:50:07.204Z,6.27
2019-02-08T18:52:35.729Z,6.13
2019-02-08T18:55:03.886Z,6.13
2019-02-08T18:57:32.029Z,6.20
2019-02-08T19:00:00.376Z,6.18
2019-02-08T19:02:28.960Z,6.11
2019-02-08T19:04:57.146Z,6.17
2019-02-08T19:07:27.026Z,6.14
2019-02-08T19:09:55.577Z,6.28
2019-02-08T19:12:25.096Z,6.11
2019-02-08T19:14:54.524Z,6.22
2019-02-08T19:17:23.331Z,6.23
2019-02-08T19:19:52.276Z,6.11
2019-02-08T19:22:21.233Z,6.17
2019-02-08T19:24:49.867Z,6.31
2019-02-08T19:27:19.026Z,6.29
2019-02-08T19:29:47.939Z,6.22
2019-02-08T19:32:17.069Z,6.29
2019-02-08T19:34:45.879Z,6.34
2019-02-08T19:37:15.187Z,6.45
2019-02-08T19:39:44.753Z,6.37
2019-02-08T19:42:13.911Z,6.31
2019-02-08T19:44:47.155Z,6.28
2019-02-08T19:47:17.048Z,6.37
2019-02-08T19:49:46.127Z,6.39
2019-02-08T19:52:16.415Z,6.34
2019-02-08T19:54:45.777Z,6.47
2019-02-08T19:57:15.237Z,6.45
2019-02-08T19:59:44.954Z,6.14
2019-02-08T20:02:14.573Z,6.22
2019-02-08T20:04:43.771Z,6.33
2019-02-08T20:07:13.425Z,6.29
2019-02-08T20:09:45.283Z,6.38
2019-02-08T20:12:14.612Z,6.41
2019-02-08T20:14:44.505Z,6.48
2019-02-08T20:17:14.316Z,6.49
2019-02-08T20:19:44.033Z,6.38
2019-02-08T20:22:14.470Z,6.58
2019-02-08T20:24:43.212Z,6.40
2019-02-08T20:27:12.616Z,6.57
2019-02-08T20:29:42.057Z,6.52
2019-02-08T20:32:11.963Z,6.66
2019-02-08T20:34:41.825Z,6.71
2019-02-08T20:37:11.888Z,6.69
2019-02-08T20:39:41.275Z,6.54
2019-02-08T20:42:10.402Z,6.54
2019-02-08T20:44:40.390Z,6.47
2019-02-08T20:47:09.659Z,6.53
2019-02-08T20:49:39.242Z,6.52
2019-02-08T20:52:08.646Z,6.54
2019-02-08T20:54:38.280Z,6.49
2019-02-08T20:57:07.631Z,6.52
2019-02-08T21:02:25.100Z,6.54
2019-02-08T21:04:54.638Z,6.54
2019-02-08T21:07:23.304Z,6.54
2019-02-08T21:09:52.223Z,6.39
2019-02-08T21:12:20.970Z,6.48
2019-02-08T21:14:50.273Z,6.52
2019-02-08T21:17:19.219Z,6.49
2019-02-08T21:19:48.175Z,6.52
2019-02-08T21:22:16.946Z,6.52
2019-02-08T21:24:46.364Z,6.48
2019-02-08T21:27:15.289Z,6.40
2019-02-08T21:29:43.967Z,6.45
2019-02-08T21:32:13.623Z,6.42
2019-02-08T21:34:42.915Z,6.39
2019-02-08T21:37:11.651Z,6.50
2019-02-08T21:39:40.159Z,6.43
2019-02-08T21:42:08.843Z,6.43
2019-02-08T21:44:37.244Z,6.32
2019-02-08T21:47:05.753Z,6.27
2019-02-08T21:49:34.169Z,6.33
2019-02-08T21:52:02.696Z,6.34
2019-02-08T21:54:32.140Z,6.33
2019-02-08T21:57:00.454Z,6.48
2019-02-08T21:59:28.619Z,6.37
2019-02-08T22:01:57.770Z,6.38
2019-02-08T22:04:25.976Z,6.53
2019-02-08T22:06:54.426Z,6.46
2019-02-08T22:09:22.498Z,6.39
2019-02-08T22:11:50.956Z,6.27
2019-02-08T22:14:20.196Z,6.32
2019-02-08T22:16:48.612Z,6.36
2019-02-08T22:19:16.962Z,6.35
2019-02-08T22:21:45.354Z,6.45
2019-02-08T22:24:13.654Z,6.58
2019-02-08T22:26:42.546Z,6.40
2019-02-08T22:29:14.153Z,6.33
2019-02-08T22:31:40.502Z,6.46
2019-02-08T22:34:08.655Z,6.45
2019-02-08T22:36:36.936Z,6.48
2019-02-08T22:39:08.114Z,6.31
2019-02-08T22:41:36.889Z,6.35
2019-02-08T22:44:05.175Z,6.38
2019-02-08T22:46:33.595Z,6.47
2019-02-08T22:49:01.705Z,6.35
2019-02-08T22:51:29.865Z,6.27
2019-02-08T22:53:58.080Z,6.42
2019-02-08T22:56:26.169Z,6.40
2019-02-08T22:58:54.282Z,6.42
2019-02-08T23:01:34.232Z,6.39
2019-02-08T23:04:03.400Z,6.48
2019-02-08T23:06:31.686Z,6.71
2019-02-08T23:08:59.975Z,6.60
2019-02-08T23:11:28.220Z,6.52
2019-02-08T23:13:56.356Z,6.38
2019-02-08T23:16:24.658Z,6.23
2019-02-08T23:18:52.650Z,6.33
2019-02-08T23:21:20.686Z,6.37
2019-02-08T23:23:48.707Z,6.40
2019-02-08T23:26:16.733Z,6.38
2019-02-08T23:28:44.771Z,6.32
2019-02-08T23:31:12.890Z,6.29
2019-02-08T23:33:40.967Z,6.30
2019-02-08T23:36:08.990Z,6.34
2019-02-08T23:38:36.979Z,6.31
2019-02-08T23:41:05.042Z,6.26
2019-02-08T23:43:33.301Z,6.38
2019-02-08T23:46:01.390Z,6.43
2019-02-08T23:48:29.389Z,6.46
2019-02-08T23:50:57.398Z,6.27
2019-02-08T23:53:25.654Z,6.16
2019-02-08T23:55:54.024Z,6.34
2019-02-08T23:58:22.332Z,6.40
